Airfield :
LOGIN :

Register | Disclaimer

   EN    FR    IT 

 










Legend :    VFR   Marginal VFR   IFR   Intensive IFR   Very Intensive IFR
Visi :
Ceiling :
>= 8 km
>= 3000ft
5 to 8 km
1000 to 3000 ft
1500m to 5 km
500 to 1000 ft
800 to 1500m
200 to 500 ft
< 800m
< 200 ft
Symbols :   Thunderstorms  Fog  Heavy snow  Heavy precipitations  Wind > 20 kt
SIGMETs :     Misc.  Thunderstorms  Icing  Turbulence  Mountain Waves  Volcanic Ashes






- Airport Elevation : 1300 ft
- IATA code : LIG


LFBL - Limoges

CURRENT METAR :
  • 071030Z AUTO 21007KT 1000 0900 R21/3300N R03/1400N BCFG VV/// 08/08 Q1022 TEMPO 2000 -DZ BR OVC003

EXPIRED METARs :
  • 071000Z AUTO 21005KT 1300 1000 R21/2200U R03/2300D BR VV/// 08/08 Q1022 TEMPO 2000 RADZ OVC003
  • 070930Z AUTO 20005KT 0550 0500 R21/1000U R03/0800U FG VV/// 07/07 Q1021 TEMPO 2000 RADZ OVC003
  • 070900Z AUTO 21006KT 0800 0600 R21/3800U R03/0750D FG OVC001 07/07 Q1021 TEMPO 2000 RADZ OVC003
  • 070830Z AUTO 19006KT 1500 1100 R21/2500D R03/2200D DZ BR VV/// 07/07 Q1021 TEMPO RADZ OVC003
  • 070800Z AUTO 20006KT 2200 -DZ BR OVC001 07/07 Q1021 TEMPO 0600 FG VV///

TAF AMD TAF LFBL
Valid from the 07 at 09:00 until the 08 at 06:00 UTC


070915Z 0709/0806 19006KT 8000 BKN006
TEMPO 0709/0712 2000 RADZ OVC003
PROB40
TEMPO 0709/0711 0600 FG VV///
TEMPO 0712/0806 2000 -DZ BR OVC003
PROB40
TEMPO 0720/0806 0600 FG VV///
ATIS : +33 5 55 48 40 37



MET'MAP, your aeronautical weather chart ! - Copyright ORBIFLY December 2007 - Disclaimer

ORBIFLY MET'MAP TEAM :

Programming & Development : Alexandra Zaïnal
Concept & original design : Baudouin d'Aumeries
Assistance for programming : Marc-Olivier Méhu
Technical & hardware support : Manuel Goepfert

Contact : metmap@orbifly.com




SOURCES & CREDITS :

   NOAA